Aviation Digital Data Service (ADDS)

Output produced by METARs form (0858 UTC 23 July 2019)
found at http://www.aviationweather.gov/metar/data/
 
Forecast for: RJFM (MIYAZAKI AIRPORT, JP)
Text: TAF RJFM 230513Z 2306/2412 24008KT 9999 FEW030
Forecast period: 0600 UTC 23 July 2019 to 0000 UTC 24 July 2019
Forecast type: FROM: standard forecast or significant change
Winds: from the WSW (240 degrees) at 9 MPH (8 knots; 4.1 m/s)
Visibility: 6 or more miles 10+ km)
Ceiling: at least 12,000 feet AGL
Clouds: few clouds at 3000 feet AGL
Weather: no significant weather forecast for this period
Text: BECMG 2400/2403 14007KT
Forecast period: 0000 to 0900 UTC 24 July 2019
Forecast type: BECOMING: Conditions expected to become as follows by 0300 UTC 24 July 2019
Winds: from the SE (140 degrees) at 8 MPH (7 knots; 3.6 m/s)
Visibility: 6 or more miles 10+ km)
Ceiling: at least 12,000 feet AGL
Clouds: few clouds at 3000 feet AGL
Weather: no significant weather forecast for this period
Text: BECMG 2409/2412 28006KT
Forecast period: 0900 to 1200 UTC 24 July 2019
Forecast type: BECOMING: Conditions expected to become as follows by 1200 UTC 24 July 2019
Winds: from the W (280 degrees) at 7 MPH (6 knots; 3.1 m/s)
Visibility: 6 or more miles 10+ km)
Ceiling: at least 12,000 feet AGL
Clouds: few clouds at 3000 feet AGL
Weather: no significant weather forecast for this period